Time;durP1;ratioP1;P1;durP2;ratioP2;P2;SDS_P1;SDS_P2;PMS_P1;PMS_P2;Temp;Humidity;BMP_temperature;BMP_pressure;BME280_temperature;BME280_humidity;BME280_pressure;Samples;Min_cycle;Max_cycle;Signal;HPM_P1;HPM_P2
2022/07/24 00:02:06;;;;;;;;;;;;;;;;;;5024378;28;20476;-81
2022/07/24 00:04:50;;;;;;;;;;;;;;;;;;5019025;28;19928;-81
2022/07/24 00:07:36;;;;;;;;;;;;;;;;;;5015824;28;20307;-83
2022/07/24 00:10:21;;;;;;;;;;;;;;;;;;5023704;28;19924;-82
2022/07/24 00:13:05;;;;;;;;;;;;;;;;;;5025225;28;20072;-81
2022/07/24 00:15:50;;;;;;;;;;;;;;;;;;5013454;28;19948;-81
2022/07/24 00:18:32;;;;;;;;;;;;;;;;;;5015467;28;19920;-81
2022/07/24 00:21:17;;;;;;;;;;;;;;;;;;5021987;28;19998;-81
2022/07/24 00:24:02;;;;;;;;;;;;;;;;;;5027283;28;20456;-81
2022/07/24 00:26:46;;;;;;;;;;;;;;;;;;5022634;28;19960;-81
2022/07/24 00:29:28;;;;;;;;;;;;;;;;;;5020489;28;20020;-81
2022/07/24 00:32:13;;;;;;;;;;;;;;;;;;5025492;28;19946;-81
2022/07/24 00:34:58;;;;;;;;;;;;;;;;;;5027528;28;19998;-80
2022/07/24 00:37:43;;;;;;;;;;;;;;;;;;5019750;28;20289;-81
2022/07/24 00:40:27;;;;;;;;;;;;;;;;;;5029755;28;20081;-80
2022/07/24 00:43:12;;;;;;;;;;;;;;;;;;5028905;28;20051;-81
2022/07/24 00:45:57;;;;;;;;;;;;;;;;;;5021748;28;19921;-81
2022/07/24 00:48:42;;;;;;;;;;;;;;;;;;5027646;28;19917;-81
2022/07/24 00:51:27;;;;;;;;;;;;;;;;;;5027317;28;19948;-81
2022/07/24 00:54:12;;;;;;;;;;;;;;;;;;5014192;28;19937;-81
2022/07/24 00:56:56;;;;;;;;;;;;;;;;;;5013024;28;19920;-81
2022/07/24 00:59:41;;;;;;;;;;;;;;;;;;5013663;28;20034;-81
2022/07/24 01:02:26;;;;;;;;;;;;;;;;;;5022143;28;19916;-81
2022/07/24 01:05:08;;;;;;;;;;;;;;;;;;5016881;28;19967;-81
2022/07/24 01:07:53;;;;;;;;;;;;;;;;;;5024559;28;19932;-81
2022/07/24 01:10:19;;;;;;;;;;;;;;;;;;5023021;28;19971;-81
2022/07/24 01:12:45;;;;;;;;;;;;;;;;;;5021955;28;19925;-80
2022/07/24 01:15:11;;;;;;;;;;;;;;;;;;5013978;28;19963;-81
2022/07/24 01:17:38;;;;;;;;;;;;;;;;;;5022227;28;19963;-81
2022/07/24 01:20:04;;;;;;;;;;;;;;;;;;5026764;28;19953;-80
2022/07/24 01:22:30;;;;;;;;;;;;;;;;;;5023441;28;19921;-79
2022/07/24 01:25:16;;;;;;;;;;;;;;;;;;5013084;28;19918;-79
2022/07/24 01:28:02;;;;;;;;;;;;;;;;;;5038767;28;20633;-78
2022/07/24 01:30:39;;;;;;;;;;;;;;;;;;5018142;28;19929;-78
2022/07/24 01:33:15;;;;;;;;;;;;;;;;;;5026482;28;19929;-79
2022/07/24 01:35:52;;;;;;;;;;;;;;;;;;5021245;28;19940;-80
2022/07/24 01:38:18;;;;;;;;;;;;;;;;;;5024806;28;19917;-80
2022/07/24 01:41:04;;;;;;;;;;;;;;;;;;5012702;28;19913;-79
2022/07/24 01:43:40;;;;;;;;;;;;;;;;;;5017074;28;19925;-80
2022/07/24 01:46:16;;;;;;;;;;;;;;;;;;5021338;28;20476;-80
2022/07/24 01:48:53;;;;;;;;;;;;;;;;;;5038911;28;19924;-79
2022/07/24 01:51:29;;;;;;;;;;;;;;;;;;5021572;28;19929;-84
2022/07/24 01:54:05;;;;;;;;;;;;;;;;;;5007600;28;19922;-81
2022/07/24 01:56:31;;;;;;;;;;;;;;;;;;5018859;28;19953;-81
2022/07/24 01:59:07;;;;;;;;;;;;;;;;;;5016737;28;19913;-81
2022/07/24 02:01:35;;;;;;;;;;;;;;;;;;5021082;28;20489;-81
2022/07/24 02:04:04;;;;;;;;;;;;;;;;;;5019632;28;19964;-81
2022/07/24 02:06:31;;;;;;;;;;;;;;;;;;5013298;28;19952;-81
2022/07/24 02:08:57;;;;;;;;;;;;;;;;;;5026508;28;20337;-81
2022/07/24 02:11:23;;;;;;;;;;;;;;;;;;5012241;28;19956;-80
2022/07/24 02:13:49;;;;;;;;;;;;;;;;;;5022920;28;20079;-79
2022/07/24 02:16:15;;;;;;;;;;;;;;;;;;5024844;28;19999;-80
2022/07/24 02:18:41;;;;;;;;;;;;;;;;;;5022536;28;20401;-79
2022/07/24 02:21:08;;;;;;;;;;;;;;;;;;5019743;28;19959;-80
2022/07/24 02:23:34;;;;;;;;;;;;;;;;;;5023770;28;19952;-80
2022/07/24 02:26:00;;;;;;;;;;;;;;;;;;5021160;28;19956;-80
2022/07/24 02:28:26;;;;;;;;;;;;;;;;;;5020307;28;19948;-80
2022/07/24 02:30:54;;;;;;;;;;;;;;;;;;5028452;28;20396;-79
2022/07/24 02:33:20;;;;;;;;;;;;;;;;;;5025903;28;20454;-81
2022/07/24 02:35:46;;;;;;;;;;;;;;;;;;5024558;28;19917;-80
2022/07/24 02:38:12;;;;;;;;;;;;;;;;;;5018552;28;20358;-80
2022/07/24 02:40:38;;;;;;;;;;;;;;;;;;5021173;28;19952;-81
2022/07/24 02:43:05;;;;;;;;;;;;;;;;;;5017838;28;19964;-80
2022/07/24 02:45:31;;;;;;;;;;;;;;;;;;5018784;28;19953;-80
2022/07/24 02:47:57;;;;;;;;;;;;;;;;;;5025236;28;20377;-80
2022/07/24 02:50:23;;;;;;;;;;;;;;;;;;5021818;28;20385;-81
2022/07/24 02:52:49;;;;;;;;;;;;;;;;;;5022287;28;19976;-81
2022/07/24 02:55:16;;;;;;;;;;;;;;;;;;5026933;28;19979;-81
2022/07/24 02:57:42;;;;;;;;;;;;;;;;;;5015758;28;19957;-80
2022/07/24 03:00:08;;;;;;;;;;;;;;;;;;5028504;28;20002;-80
2022/07/24 03:02:34;;;;;;;;;;;;;;;;;;5018839;28;19960;-81
2022/07/24 03:05:01;;;;;;;;;;;;;;;;;;5030262;28;19936;-82
2022/07/24 03:07:27;;;;;;;;;;;;;;;;;;5024809;28;19974;-82
2022/07/24 03:09:53;;;;;;;;;;;;;;;;;;5029845;28;19960;-82
2022/07/24 03:12:19;;;;;;;;;;;;;;;;;;5022071;28;19992;-82
2022/07/24 03:14:45;;;;;;;;;;;;;;;;;;5019767;28;19929;-82
2022/07/24 03:17:12;;;;;;;;;;;;;;;;;;5026250;28;19988;-82
2022/07/24 03:19:38;;;;;;;;;;;;;;;;;;5028148;28;19953;-82
2022/07/24 03:22:04;;;;;;;;;;;;;;;;;;5028247;28;20376;-83
2022/07/24 03:24:30;;;;;;;;;;;;;;;;;;5018417;28;20006;-84
2022/07/24 03:26:56;;;;;;;;;;;;;;;;;;5023860;28;19959;-82
2022/07/24 03:29:23;;;;;;;;;;;;;;;;;;5028292;28;19952;-82
2022/07/24 03:31:49;;;;;;;;;;;;;;;;;;5019956;28;19969;-83
2022/07/24 03:34:15;;;;;;;;;;;;;;;;;;5024224;28;19917;-82
2022/07/24 03:36:41;;;;;;;;;;;;;;;;;;5021551;28;19979;-82
2022/07/24 03:39:07;;;;;;;;;;;;;;;;;;5029213;28;20443;-82
2022/07/24 03:41:33;;;;;;;;;;;;;;;;;;5022841;28;19956;-82
2022/07/24 03:44:00;;;;;;;;;;;;;;;;;;5023484;28;20709;-82
2022/07/24 03:46:28;;;;;;;;;;;;;;;;;;5021183;28;19995;-80
2022/07/24 03:48:54;;;;;;;;;;;;;;;;;;5027696;28;19914;-81
2022/07/24 03:51:20;;;;;;;;;;;;;;;;;;5020315;28;19965;-81
2022/07/24 03:53:46;;;;;;;;;;;;;;;;;;5023901;28;19976;-81
2022/07/24 03:56:12;;;;;;;;;;;;;;;;;;5022349;28;19963;-81
2022/07/24 03:58:39;;;;;;;;;;;;;;;;;;5023995;28;19937;-81
2022/07/24 04:01:05;;;;;;;;;;;;;;;;;;5018533;28;19918;-82
2022/07/24 04:03:31;;;;;;;;;;;;;;;;;;5026360;28;20374;-82
2022/07/24 04:05:57;;;;;;;;;;;;;;;;;;5021424;28;19949;-81
2022/07/24 04:08:23;;;;;;;;;;;;;;;;;;5020487;28;20575;-81
2022/07/24 04:10:56;;;;;;;;;;;;;;;;;;5014653;28;19963;-81
2022/07/24 04:13:22;;;;;;;;;;;;;;;;;;5021463;28;20593;-80
2022/07/24 04:15:48;;;;;;;;;;;;;;;;;;5029010;28;19959;-81
2022/07/24 04:18:14;;;;;;;;;;;;;;;;;;5019132;28;19959;-80
2022/07/24 04:20:40;;;;;;;;;;;;;;;;;;5021787;28;19944;-80
2022/07/24 04:23:07;;;;;;;;;;;;;;;;;;5021557;28;20358;-81
2022/07/24 04:25:34;;;;;;;;;;;;;;;;;;5027042;28;19963;-80
2022/07/24 04:28:00;;;;;;;;;;;;;;;;;;5022459;28;19941;-81
2022/07/24 04:30:26;;;;;;;;;;;;;;;;;;5027827;28;19963;-81
2022/07/24 04:32:52;;;;;;;;;;;;;;;;;;5024512;28;20399;-81
2022/07/24 04:35:19;;;;;;;;;;;;;;;;;;5020739;28;19972;-82
2022/07/24 04:37:45;;;;;;;;;;;;;;;;;;5018908;28;20330;-82
2022/07/24 04:40:11;;;;;;;;;;;;;;;;;;5023851;28;20384;-81
2022/07/24 04:42:38;;;;;;;;;;;;;;;;;;5015730;28;19960;-81
2022/07/24 04:45:04;;;;;;;;;;;;;;;;;;5020093;28;20703;-79
2022/07/24 04:47:31;;;;;;;;;;;;;;;;;;5020980;28;19963;-76
2022/07/24 04:49:57;;;;;;;;;;;;;;;;;;5023543;28;20385;-78
2022/07/24 04:52:23;;;;;;;;;;;;;;;;;;5026319;28;19953;-76
2022/07/24 04:54:49;;;;;;;;;;;;;;;;;;5026551;28;20715;-79
2022/07/24 04:57:15;;;;;;;;;;;;;;;;;;5024052;28;19967;-78
2022/07/24 04:59:41;;;;;;;;;;;;;;;;;;5022124;28;19956;-82
2022/07/24 05:02:08;;;;;;;;;;;;;;;;;;5021376;28;19941;-82
2022/07/24 05:04:34;;;;;;;;;;;;;;;;;;5018676;28;19918;-81
2022/07/24 05:07:00;;;;;;;;;;;;;;;;;;5025084;28;19963;-81
2022/07/24 05:09:26;;;;;;;;;;;;;;;;;;5017735;28;20310;-80
2022/07/24 05:11:53;;;;;;;;;;;;;;;;;;5020116;28;19965;-80
2022/07/24 05:14:19;;;;;;;;;;;;;;;;;;5017895;28;19991;-82
2022/07/24 05:16:45;;;;;;;;;;;;;;;;;;5025634;28;19960;-81
2022/07/24 05:19:11;;;;;;;;;;;;;;;;;;5017217;28;19960;-81
2022/07/24 05:21:37;;;;;;;;;;;;;;;;;;5021771;28;19960;-81
2022/07/24 05:24:04;;;;;;;;;;;;;;;;;;5027760;28;19941;-80
2022/07/24 05:26:31;;;;;;;;;;;;;;;;;;5023509;28;19976;-81
2022/07/24 05:28:57;;;;;;;;;;;;;;;;;;5021204;28;19992;-81
2022/07/24 05:31:23;;;;;;;;;;;;;;;;;;5024618;28;19956;-81
2022/07/24 05:33:49;;;;;;;;;;;;;;;;;;5023561;28;19952;-81
2022/07/24 05:36:15;;;;;;;;;;;;;;;;;;5024822;28;19960;-81
2022/07/24 05:38:43;;;;;;;;;;;;;;;;;;5024126;28;20416;-81
2022/07/24 05:41:09;;;;;;;;;;;;;;;;;;5018108;28;19964;-81
2022/07/24 05:43:35;;;;;;;;;;;;;;;;;;5023266;28;20527;-81
2022/07/24 05:46:02;;;;;;;;;;;;;;;;;;5018020;28;19953;-81
2022/07/24 05:48:28;;;;;;;;;;;;;;;;;;5020945;28;19960;-81
2022/07/24 05:50:54;;;;;;;;;;;;;;;;;;5023804;28;20090;-80
2022/07/24 05:53:21;;;;;;;;;;;;;;;;;;5022595;28;19971;-80
2022/07/24 05:55:47;;;;;;;;;;;;;;;;;;5023703;28;19949;-80
2022/07/24 05:58:13;;;;;;;;;;;;;;;;;;5023085;28;19955;-80
2022/07/24 06:00:39;;;;;;;;;;;;;;;;;;5025684;28;19956;-80
2022/07/24 06:03:05;;;;;;;;;;;;;;;;;;5024546;28;19971;-81
2022/07/24 06:05:31;;;;;;;;;;;;;;;;;;5023484;28;20377;-77
2022/07/24 06:07:58;;;;;;;;;;;;;;;;;;5022131;28;19964;-77
2022/07/24 06:10:24;;;;;;;;;;;;;;;;;;5020465;28;19944;-78
2022/07/24 06:12:50;;;;;;;;;;;;;;;;;;5021855;28;19991;-79
2022/07/24 06:15:16;;;;;;;;;;;;;;;;;;5019284;28;20314;-79
2022/07/24 06:17:42;;;;;;;;;;;;;;;;;;5021565;28;19957;-78
2022/07/24 06:20:09;;;;;;;;;;;;;;;;;;5020297;28;20368;-79
2022/07/24 06:22:36;;;;;;;;;;;;;;;;;;5021901;28;19976;-78
2022/07/24 06:25:02;;;;;;;;;;;;;;;;;;5020966;28;19991;-78
2022/07/24 06:27:28;;;;;;;;;;;;;;;;;;5018994;28;19960;-78
2022/07/24 06:29:54;;;;;;;;;;;;;;;;;;5022188;28;20868;-78
2022/07/24 06:32:20;;;;;;;;;;;;;;;;;;5023229;28;19944;-79
2022/07/24 06:34:47;;;;;;;;;;;;;;;;;;5023959;28;20489;-78
2022/07/24 06:37:13;;;;;;;;;;;;;;;;;;5017230;28;19979;-78
2022/07/24 06:39:39;;;;;;;;;;;;;;;;;;5023902;28;19951;-78
2022/07/24 06:42:05;;;;;;;;;;;;;;;;;;5021770;28;19975;-78
2022/07/24 06:44:33;;;;;;;;;;;;;;;;;;5021809;28;19945;-78
2022/07/24 06:46:59;;;;;;;;;;;;;;;;;;5020176;28;19986;-78
2022/07/24 06:49:25;;;;;;;;;;;;;;;;;;5019961;28;20354;-80
2022/07/24 06:51:51;;;;;;;;;;;;;;;;;;5020723;28;19929;-79
2022/07/24 06:54:18;;;;;;;;;;;;;;;;;;5018541;28;19925;-78
2022/07/24 06:56:44;;;;;;;;;;;;;;;;;;5022650;28;19972;-78
2022/07/24 06:59:10;;;;;;;;;;;;;;;;;;5019690;28;19963;-79
2022/07/24 07:01:36;;;;;;;;;;;;;;;;;;5022399;28;20410;-79
2022/07/24 07:04:02;;;;;;;;;;;;;;;;;;5021866;28;19960;-78
2022/07/24 07:06:29;;;;;;;;;;;;;;;;;;5022967;28;19960;-77
2022/07/24 07:08:55;;;;;;;;;;;;;;;;;;5021496;28;20455;-78
2022/07/24 07:11:21;;;;;;;;;;;;;;;;;;5021467;28;19952;-78
2022/07/24 07:13:47;;;;;;;;;;;;;;;;;;5021967;28;19967;-78
2022/07/24 07:16:13;;;;;;;;;;;;;;;;;;5021175;28;20007;-77
2022/07/24 07:18:39;;;;;;;;;;;;;;;;;;5018178;28;19965;-82
2022/07/24 07:21:06;;;;;;;;;;;;;;;;;;5024046;28;20057;-78
2022/07/24 07:23:32;;;;;;;;;;;;;;;;;;5018891;28;19951;-78
2022/07/24 07:25:58;;;;;;;;;;;;;;;;;;5023058;28;20039;-78
2022/07/24 07:28:24;;;;;;;;;;;;;;;;;;5022710;28;20297;-78
2022/07/24 07:30:51;;;;;;;;;;;;;;;;;;5020900;28;19960;-79
2022/07/24 07:33:17;;;;;;;;;;;;;;;;;;5017907;28;19953;-78
2022/07/24 07:35:43;;;;;;;;;;;;;;;;;;5025978;28;20370;-79
2022/07/24 07:38:09;;;;;;;;;;;;;;;;;;5022489;28;19960;-82
2022/07/24 07:40:35;;;;;;;;;;;;;;;;;;5027792;28;20369;-81
2022/07/24 07:43:02;;;;;;;;;;;;;;;;;;5024859;28;19972;-80
2022/07/24 07:45:28;;;;;;;;;;;;;;;;;;5026400;28;20533;-81
2022/07/24 07:47:54;;;;;;;;;;;;;;;;;;5023380;28;19963;-81
2022/07/24 07:50:20;;;;;;;;;;;;;;;;;;5019711;28;20404;-80
2022/07/24 07:52:46;;;;;;;;;;;;;;;;;;5023312;28;19968;-79
2022/07/24 07:55:13;;;;;;;;;;;;;;;;;;5026326;28;20444;-82
2022/07/24 07:57:41;;;;;;;;;;;;;;;;;;5022505;28;19960;-79
2022/07/24 08:00:07;;;;;;;;;;;;;;;;;;5024756;28;19961;-79
2022/07/24 08:02:33;;;;;;;;;;;;;;;;;;5019535;28;19953;-79
2022/07/24 08:04:59;;;;;;;;;;;;;;;;;;5019951;28;20368;-80
2022/07/24 08:07:25;;;;;;;;;;;;;;;;;;5023800;28;20000;-80
2022/07/24 08:09:53;;;;;;;;;;;;;;;;;;5026319;28;19963;-81
2022/07/24 08:12:19;;;;;;;;;;;;;;;;;;5022112;28;19963;-79
2022/07/24 08:14:45;;;;;;;;;;;;;;;;;;5023978;28;19925;-80
2022/07/24 08:17:11;;;;;;;;;;;;;;;;;;5021941;28;19957;-79
2022/07/24 08:19:37;;;;;;;;;;;;;;;;;;5023125;28;19949;-80
2022/07/24 08:22:04;;;;;;;;;;;;;;;;;;5026796;28;20554;-79
2022/07/24 08:24:32;;;;;;;;;;;;;;;;;;5023639;28;19969;-78
2022/07/24 08:26:58;;;;;;;;;;;;;;;;;;5026710;28;19949;-81
2022/07/24 08:29:24;;;;;;;;;;;;;;;;;;5025664;28;19961;-82
2022/07/24 08:31:50;;;;;;;;;;;;;;;;;;5021584;28;19956;-83
2022/07/24 08:34:17;;;;;;;;;;;;;;;;;;5022159;28;19964;-81
2022/07/24 08:36:45;;;;;;;;;;;;;;;;;;5020551;28;19972;-82
2022/07/24 08:39:11;;;;;;;;;;;;;;;;;;5020679;28;19957;-81
2022/07/24 08:41:37;;;;;;;;;;;;;;;;;;5022790;28;19953;-81
2022/07/24 08:44:03;;;;;;;;;;;;;;;;;;5023274;28;20401;-81
2022/07/24 08:46:30;;;;;;;;;;;;;;;;;;5024267;28;19956;-81
2022/07/24 08:48:56;;;;;;;;;;;;;;;;;;5025990;28;19964;-78
2022/07/24 08:51:22;;;;;;;;;;;;;;;;;;5020680;28;19944;-79
2022/07/24 08:53:49;;;;;;;;;;;;;;;;;;5016870;28;19979;-79
2022/07/24 08:56:15;;;;;;;;;;;;;;;;;;5012606;28;19918;-79
2022/07/24 08:58:42;;;;;;;;;;;;;;;;;;5023900;28;20347;-78
2022/07/24 09:01:08;;;;;;;;;;;;;;;;;;5015132;28;20377;-78
2022/07/24 09:03:34;;;;;;;;;;;;;;;;;;5022417;28;19960;-79
2022/07/24 09:06:01;;;;;;;;;;;;;;;;;;5018248;28;19968;-79
2022/07/24 09:08:27;;;;;;;;;;;;;;;;;;5026994;28;19957;-79
2022/07/24 09:10:53;;;;;;;;;;;;;;;;;;5021613;28;19945;-82
2022/07/24 09:13:19;;;;;;;;;;;;;;;;;;5023176;28;19979;-82
2022/07/24 09:15:45;;;;;;;;;;;;;;;;;;5027750;28;20024;-83
2022/07/24 09:18:12;;;;;;;;;;;;;;;;;;5023818;28;19957;-83
2022/07/24 09:20:38;;;;;;;;;;;;;;;;;;5022030;28;19948;-83
2022/07/24 09:23:04;;;;;;;;;;;;;;;;;;5023160;28;20007;-83
2022/07/24 09:25:31;;;;;;;;;;;;;;;;;;5021729;28;19956;-78
2022/07/24 09:27:57;;;;;;;;;;;;;;;;;;5024992;28;20382;-78
2022/07/24 09:30:23;;;;;;;;;;;;;;;;;;5020005;28;19971;-80
2022/07/24 09:32:49;;;;;;;;;;;;;;;;;;5021259;28;19953;-80
2022/07/24 09:35:16;;;;;;;;;;;;;;;;;;5021662;28;19971;-80
2022/07/24 09:37:42;;;;;;;;;;;;;;;;;;5024418;28;19948;-83
2022/07/24 09:40:08;;;;;;;;;;;;;;;;;;5016818;28;19973;-81
2022/07/24 09:42:38;;;;;;;;;;;;;;;;;;5022999;28;19963;-80
2022/07/24 09:45:05;;;;;;;;;;;;;;;;;;5020043;28;19960;-80
2022/07/24 09:47:31;;;;;;;;;;;;;;;;;;5022978;28;19955;-80
2022/07/24 09:49:57;;;;;;;;;;;;;;;;;;5021299;28;19957;-82
2022/07/24 09:52:23;;;;;;;;;;;;;;;;;;5023157;28;19956;-83
2022/07/24 09:54:50;;;;;;;;;;;;;;;;;;5025769;28;19987;-81
2022/07/24 09:57:17;;;;;;;;;;;;;;;;;;5021640;28;19960;-81
2022/07/24 09:59:43;;;;;;;;;;;;;;;;;;5017910;28;19945;-78
2022/07/24 10:02:10;;;;;;;;;;;;;;;;;;5021738;28;19963;-77
2022/07/24 10:04:36;;;;;;;;;;;;;;;;;;5022351;28;19960;-81
2022/07/24 10:07:02;;;;;;;;;;;;;;;;;;5023266;28;19952;-79
2022/07/24 10:09:28;;;;;;;;;;;;;;;;;;5023775;28;19948;-81
2022/07/24 10:11:54;;;;;;;;;;;;;;;;;;5006874;28;19913;-81
2022/07/24 10:14:20;;;;;;;;;;;;;;;;;;5021196;28;20014;-81
2022/07/24 10:16:47;;;;;;;;;;;;;;;;;;5021346;28;19941;-81
2022/07/24 10:19:13;;;;;;;;;;;;;;;;;;5003321;28;19928;-81
2022/07/24 10:21:39;;;;;;;;;;;;;;;;;;5023141;28;19945;-80
2022/07/24 10:24:05;;;;;;;;;;;;;;;;;;5024869;28;19941;-82
2022/07/24 10:26:31;;;;;;;;;;;;;;;;;;5023444;28;20380;-80
2022/07/24 10:28:57;;;;;;;;;;;;;;;;;;5022920;28;19957;-80
2022/07/24 10:31:24;;;;;;;;;;;;;;;;;;5020803;28;19945;-81
2022/07/24 10:33:50;;;;;;;;;;;;;;;;;;5019261;28;20400;-81
2022/07/24 10:36:16;;;;;;;;;;;;;;;;;;5017914;28;19971;-80
2022/07/24 10:38:42;;;;;;;;;;;;;;;;;;5024158;28;19960;-80
2022/07/24 10:41:08;;;;;;;;;;;;;;;;;;5019228;28;19995;-78
2022/07/24 10:43:35;;;;;;;;;;;;;;;;;;5021876;28;19953;-78
2022/07/24 10:46:01;;;;;;;;;;;;;;;;;;5016252;28;20488;-78
2022/07/24 10:48:28;;;;;;;;;;;;;;;;;;5018905;28;20358;-78
2022/07/24 10:50:54;;;;;;;;;;;;;;;;;;5021124;28;19956;-81
2022/07/24 10:53:21;;;;;;;;;;;;;;;;;;5014305;28;19964;-80
2022/07/24 10:55:47;;;;;;;;;;;;;;;;;;5019664;28;20026;-79
2022/07/24 10:58:16;;;;;;;;;;;;;;;;;;5018844;28;19952;-78
2022/07/24 11:00:42;;;;;;;;;;;;;;;;;;5022404;28;19961;-78
2022/07/24 11:03:09;;;;;;;;;;;;;;;;;;5021686;28;19960;-79
2022/07/24 11:05:35;;;;;;;;;;;;;;;;;;5023174;28;19975;-79
2022/07/24 11:08:01;;;;;;;;;;;;;;;;;;5019311;28;20007;-79
2022/07/24 11:10:27;;;;;;;;;;;;;;;;;;5028057;28;19952;-80
2022/07/24 11:12:53;;;;;;;;;;;;;;;;;;5023948;28;19968;-79
2022/07/24 11:18:04;;;;;;;;;;;;;;;;;;5024689;28;19968;-81
2022/07/24 11:20:30;;;;;;;;;;;;;;;;;;5022138;28;20385;-78
2022/07/24 11:23:00;;;;;;;;;;;;;;;;;;5023802;28;19917;-83
2022/07/24 11:25:26;;;;;;;;;;;;;;;;;;5021070;28;20011;-82
2022/07/24 11:27:52;;;;;;;;;;;;;;;;;;5018460;28;20002;-82
2022/07/24 11:30:19;;;;;;;;;;;;;;;;;;5014783;28;20024;-82
2022/07/24 11:32:45;;;;;;;;;;;;;;;;;;5023447;28;19989;-82
2022/07/24 11:35:12;;;;;;;;;;;;;;;;;;5024916;28;20038;-81
2022/07/24 11:37:38;;;;;;;;;;;;;;;;;;5024072;28;20456;-82
2022/07/24 11:40:05;;;;;;;;;;;;;;;;;;5024999;28;19944;-81
2022/07/24 11:42:32;;;;;;;;;;;;;;;;;;5024865;28;20413;-81
2022/07/24 11:44:58;;;;;;;;;;;;;;;;;;5022068;28;19953;-81
2022/07/24 11:47:24;;;;;;;;;;;;;;;;;;5025756;28;19964;-81
2022/07/24 11:49:52;;;;;;;;;;;;;;;;;;5025970;28;20418;-80
2022/07/24 11:52:18;;;;;;;;;;;;;;;;;;5022208;28;20341;-78
2022/07/24 11:54:44;;;;;;;;;;;;;;;;;;5024950;28;19993;-77
2022/07/24 11:57:11;;;;;;;;;;;;;;;;;;5029785;28;19965;-77
2022/07/24 11:59:37;;;;;;;;;;;;;;;;;;5025314;28;19952;-77
2022/07/24 12:02:03;;;;;;;;;;;;;;;;;;5023440;28;19917;-76
2022/07/24 12:04:29;;;;;;;;;;;;;;;;;;5025181;28;19921;-77
2022/07/24 12:06:55;;;;;;;;;;;;;;;;;;5023638;28;19917;-77
2022/07/24 12:09:22;;;;;;;;;;;;;;;;;;5023394;28;19967;-77
2022/07/24 12:11:48;;;;;;;;;;;;;;;;;;5022249;28;19963;-77
2022/07/24 12:14:15;;;;;;;;;;;;;;;;;;5023972;28;19965;-77
2022/07/24 12:16:41;;;;;;;;;;;;;;;;;;5025569;28;19959;-77
2022/07/24 12:19:07;;;;;;;;;;;;;;;;;;5001616;28;19956;-78
2022/07/24 12:21:33;;;;;;;;;;;;;;;;;;5024571;28;20365;-78
2022/07/24 12:23:59;;;;;;;;;;;;;;;;;;5024721;28;19941;-77
2022/07/24 12:26:26;;;;;;;;;;;;;;;;;;5017965;28;20243;-77
2022/07/24 12:28:52;;;;;;;;;;;;;;;;;;5020582;28;19963;-78
2022/07/24 12:31:18;;;;;;;;;;;;;;;;;;5021504;28;19949;-77
2022/07/24 12:33:44;;;;;;;;;;;;;;;;;;5020919;28;19980;-77
2022/07/24 12:36:11;;;;;;;;;;;;;;;;;;5025404;28;19960;-77
2022/07/24 12:38:38;;;;;;;;;;;;;;;;;;5023213;28;19951;-77
2022/07/24 12:41:04;;;;;;;;;;;;;;;;;;5025634;28;20011;-77
2022/07/24 12:43:30;;;;;;;;;;;;;;;;;;5025738;28;20032;-77
2022/07/24 12:45:56;;;;;;;;;;;;;;;;;;5025705;28;19948;-77
2022/07/24 12:48:23;;;;;;;;;;;;;;;;;;5025071;28;21245;-76
2022/07/24 12:50:49;;;;;;;;;;;;;;;;;;5008120;28;19952;-77
2022/07/24 12:53:15;;;;;;;;;;;;;;;;;;5022583;28;19976;-77
2022/07/24 12:55:41;;;;;;;;;;;;;;;;;;5025227;28;19957;-78
2022/07/24 12:58:07;;;;;;;;;;;;;;;;;;5025512;28;19952;-78
2022/07/24 13:00:33;;;;;;;;;;;;;;;;;;5025075;28;19961;-78
2022/07/24 13:03:00;;;;;;;;;;;;;;;;;;5024697;28;19957;-78
2022/07/24 13:05:26;;;;;;;;;;;;;;;;;;5028878;28;19952;-77
2022/07/24 13:07:52;;;;;;;;;;;;;;;;;;5031217;28;20632;-77
2022/07/24 13:10:18;;;;;;;;;;;;;;;;;;5026454;28;19957;-77
2022/07/24 13:12:44;;;;;;;;;;;;;;;;;;5028442;28;19968;-77
2022/07/24 13:15:11;;;;;;;;;;;;;;;;;;5028873;28;19987;-78
2022/07/24 13:17:37;;;;;;;;;;;;;;;;;;5035777;28;19925;-77
2022/07/24 13:20:06;;;;;;;;;;;;;;;;;;5031436;28;19918;-78
2022/07/24 13:22:32;;;;;;;;;;;;;;;;;;5030925;28;19917;-77
2022/07/24 13:24:58;;;;;;;;;;;;;;;;;;5026927;28;19913;-77
2022/07/24 13:27:24;;;;;;;;;;;;;;;;;;5029642;28;19952;-77
2022/07/24 13:29:50;;;;;;;;;;;;;;;;;;5032755;28;19921;-77
2022/07/24 13:32:16;;;;;;;;;;;;;;;;;;5034526;28;19983;-77
2022/07/24 13:34:43;;;;;;;;;;;;;;;;;;5024656;28;19929;-77
2022/07/24 13:37:09;;;;;;;;;;;;;;;;;;5024921;28;19913;-76
2022/07/24 13:39:37;;;;;;;;;;;;;;;;;;5030383;28;19913;-77
2022/07/24 13:42:03;;;;;;;;;;;;;;;;;;5027289;28;19913;-76
2022/07/24 13:44:29;;;;;;;;;;;;;;;;;;5030512;28;19924;-76
2022/07/24 13:46:55;;;;;;;;;;;;;;;;;;5023056;28;19921;-77
2022/07/24 13:49:22;;;;;;;;;;;;;;;;;;5027827;28;19924;-76
2022/07/24 13:51:48;;;;;;;;;;;;;;;;;;5027692;28;19987;-77
2022/07/24 13:54:14;;;;;;;;;;;;;;;;;;5032006;28;19946;-76
2022/07/24 13:56:40;;;;;;;;;;;;;;;;;;5029950;28;19917;-76
2022/07/24 13:59:06;;;;;;;;;;;;;;;;;;5027814;28;19924;-77
2022/07/24 14:01:33;;;;;;;;;;;;;;;;;;5033443;28;19917;-75
2022/07/24 14:04:00;;;;;;;;;;;;;;;;;;5028663;28;20336;-77
2022/07/24 14:06:26;;;;;;;;;;;;;;;;;;5036607;28;20445;-77
2022/07/24 14:08:52;;;;;;;;;;;;;;;;;;5035136;28;19928;-76
2022/07/24 14:11:19;;;;;;;;;;;;;;;;;;5031437;28;19914;-77
2022/07/24 14:13:45;;;;;;;;;;;;;;;;;;5026619;28;19933;-76
2022/07/24 14:16:11;;;;;;;;;;;;;;;;;;5024959;28;19933;-76
2022/07/24 14:18:39;;;;;;;;;;;;;;;;;;5026989;28;20515;-77
2022/07/24 14:21:05;;;;;;;;;;;;;;;;;;5023481;28;20416;-75
2022/07/24 14:23:32;;;;;;;;;;;;;;;;;;5020053;28;19932;-76
2022/07/24 14:25:58;;;;;;;;;;;;;;;;;;5032686;28;19913;-75
2022/07/24 14:28:24;;;;;;;;;;;;;;;;;;5021236;28;19924;-75
2022/07/24 14:30:50;;;;;;;;;;;;;;;;;;5024172;28;20733;-75
2022/07/24 14:33:16;;;;;;;;;;;;;;;;;;5028222;28;19996;-76
2022/07/24 14:35:43;;;;;;;;;;;;;;;;;;5028866;28;19929;-76
2022/07/24 14:38:09;;;;;;;;;;;;;;;;;;5024531;28;19948;-76
2022/07/24 14:40:35;;;;;;;;;;;;;;;;;;5035212;28;19941;-75
2022/07/24 14:43:01;;;;;;;;;;;;;;;;;;5023901;28;19914;-77
2022/07/24 14:45:28;;;;;;;;;;;;;;;;;;5029117;28;19913;-77
2022/07/24 14:47:55;;;;;;;;;;;;;;;;;;5034387;28;19913;-76
2022/07/24 14:50:21;;;;;;;;;;;;;;;;;;5028894;28;19921;-76
2022/07/24 14:52:47;;;;;;;;;;;;;;;;;;5024763;28;19969;-77
2022/07/24 14:55:13;;;;;;;;;;;;;;;;;;5024951;28;19918;-76
2022/07/24 14:57:40;;;;;;;;;;;;;;;;;;5024332;28;19945;-77
2022/07/24 15:00:06;;;;;;;;;;;;;;;;;;5027810;28;19945;-77
2022/07/24 15:02:32;;;;;;;;;;;;;;;;;;5020631;28;19945;-76
2022/07/24 15:04:58;;;;;;;;;;;;;;;;;;5024438;28;20063;-77
2022/07/24 15:07:25;;;;;;;;;;;;;;;;;;5026527;28;19960;-76
2022/07/24 15:09:51;;;;;;;;;;;;;;;;;;5027749;28;19960;-75
2022/07/24 15:12:17;;;;;;;;;;;;;;;;;;5016888;28;19957;-76
2022/07/24 15:14:43;;;;;;;;;;;;;;;;;;5014303;28;19945;-76
2022/07/24 15:17:09;;;;;;;;;;;;;;;;;;5022778;28;20010;-76
2022/07/24 15:19:35;;;;;;;;;;;;;;;;;;5021786;28;19956;-76
2022/07/24 15:22:02;;;;;;;;;;;;;;;;;;5019624;28;20383;-75
2022/07/24 15:24:28;;;;;;;;;;;;;;;;;;5018006;28;19956;-75
2022/07/24 15:26:54;;;;;;;;;;;;;;;;;;5021984;28;19979;-75
2022/07/24 15:29:20;;;;;;;;;;;;;;;;;;5016869;28;19929;-75
2022/07/24 15:31:47;;;;;;;;;;;;;;;;;;5023771;28;19944;-75
2022/07/24 15:34:13;;;;;;;;;;;;;;;;;;5023429;28;19965;-75
2022/07/24 15:36:40;;;;;;;;;;;;;;;;;;5029217;28;19955;-75
2022/07/24 15:39:06;;;;;;;;;;;;;;;;;;5024999;28;19964;-76
2022/07/24 15:41:32;;;;;;;;;;;;;;;;;;5022066;28;20479;-76
2022/07/24 15:43:58;;;;;;;;;;;;;;;;;;5025578;28;19971;-76
2022/07/24 15:46:24;;;;;;;;;;;;;;;;;;5022884;28;19952;-76
2022/07/24 15:48:51;;;;;;;;;;;;;;;;;;5022028;28;19957;-75
2022/07/24 15:51:17;;;;;;;;;;;;;;;;;;5016660;28;20396;-75
2022/07/24 15:53:43;;;;;;;;;;;;;;;;;;5023838;28;19972;-77
2022/07/24 15:56:09;;;;;;;;;;;;;;;;;;5017164;28;20321;-76
2022/07/24 15:58:35;;;;;;;;;;;;;;;;;;5025290;28;19964;-75
2022/07/24 16:01:01;;;;;;;;;;;;;;;;;;5025730;28;19948;-76
2022/07/24 16:03:28;;;;;;;;;;;;;;;;;;5029676;28;19960;-75
2022/07/24 16:05:55;;;;;;;;;;;;;;;;;;5021073;28;19999;-75
2022/07/24 16:08:21;;;;;;;;;;;;;;;;;;5019673;28;19960;-75
2022/07/24 16:10:47;;;;;;;;;;;;;;;;;;5023508;28;19944;-80
2022/07/24 16:13:13;;;;;;;;;;;;;;;;;;5022149;28;20366;-76
2022/07/24 16:15:39;;;;;;;;;;;;;;;;;;5021463;28;19952;-79
2022/07/24 16:18:06;;;;;;;;;;;;;;;;;;5019126;28;19956;-77
2022/07/24 16:20:32;;;;;;;;;;;;;;;;;;5021910;28;19959;-79
2022/07/24 16:22:59;;;;;;;;;;;;;;;;;;5022326;28;20047;-76
2022/07/24 16:25:25;;;;;;;;;;;;;;;;;;5019251;28;19956;-76
2022/07/24 16:27:51;;;;;;;;;;;;;;;;;;5024261;28;19975;-75
2022/07/24 16:30:17;;;;;;;;;;;;;;;;;;5017730;28;19957;-75
2022/07/24 16:32:43;;;;;;;;;;;;;;;;;;5025105;28;20004;-75
2022/07/24 16:35:10;;;;;;;;;;;;;;;;;;5018628;28;19949;-76
2022/07/24 16:37:36;;;;;;;;;;;;;;;;;;5028737;28;20042;-75
2022/07/24 16:40:04;;;;;;;;;;;;;;;;;;5021266;28;19964;-75
2022/07/24 16:42:30;;;;;;;;;;;;;;;;;;5022995;28;19967;-75
2022/07/24 16:44:57;;;;;;;;;;;;;;;;;;5021464;28;20391;-75
2022/07/24 16:47:23;;;;;;;;;;;;;;;;;;5021070;28;19956;-75
2022/07/24 16:49:49;;;;;;;;;;;;;;;;;;5013960;28;19941;-75
2022/07/24 16:52:15;;;;;;;;;;;;;;;;;;5026346;28;20389;-76